sensor_id;sensor_type;location;lat;lon;timestamp;temperature;humidity
39675;DHT22;27790;50.840;4.386;2024-02-14T00:01:34;10.90;99.90
39675;DHT22;27790;50.840;4.386;2024-02-14T00:04:03;10.90;99.90
39675;DHT22;27790;50.840;4.386;2024-02-14T00:06:29;10.90;99.90
39675;DHT22;27790;50.840;4.386;2024-02-14T00:08:54;11.00;99.90
39675;DHT22;27790;50.840;4.386;2024-02-14T00:11:20;11.00;99.90
39675;DHT22;27790;50.840;4.386;2024-02-14T00:13:45;11.00;99.90
39675;DHT22;27790;50.840;4.386;2024-02-14T00:16:11;11.00;99.90
39675;DHT22;27790;50.840;4.386;2024-02-14T00:18:36;11.00;99.90
39675;DHT22;27790;50.840;4.386;2024-02-14T00:21:02;10.90;99.90
39675;DHT22;27790;50.840;4.386;2024-02-14T00:23:27;11.00;99.90
39675;DHT22;27790;50.840;4.386;2024-02-14T00:25:53;11.00;99.90
39675;DHT22;27790;50.840;4.386;2024-02-14T00:28:19;11.10;99.90
39675;DHT22;27790;50.840;4.386;2024-02-14T00:30:44;11.20;99.90
39675;DHT22;27790;50.840;4.386;2024-02-14T00:33:10;11.20;99.90
39675;DHT22;27790;50.840;4.386;2024-02-14T00:35:35;11.10;99.90
39675;DHT22;27790;50.840;4.386;2024-02-14T00:38:01;11.20;99.90
39675;DHT22;27790;50.840;4.386;2024-02-14T00:40:27;11.20;99.90
39675;DHT22;27790;50.840;4.386;2024-02-14T00:42:52;11.20;99.90
39675;DHT22;27790;50.840;4.386;2024-02-14T00:45:18;11.30;99.90
39675;DHT22;27790;50.840;4.386;2024-02-14T00:47:43;11.30;99.90
39675;DHT22;27790;50.840;4.386;2024-02-14T00:50:09;11.30;99.90
39675;DHT22;27790;50.840;4.386;2024-02-14T00:52:34;11.30;99.90
39675;DHT22;27790;50.840;4.386;2024-02-14T00:55:00;11.30;99.90
39675;DHT22;27790;50.840;4.386;2024-02-14T00:57:28;11.40;99.90
39675;DHT22;27790;50.840;4.386;2024-02-14T00:59:54;11.40;99.90
39675;DHT22;27790;50.840;4.386;2024-02-14T01:02:22;11.40;99.90
39675;DHT22;27790;50.840;4.386;2024-02-14T01:04:47;11.40;99.90
39675;DHT22;27790;50.840;4.386;2024-02-14T01:07:13;11.30;99.90
39675;DHT22;27790;50.840;4.386;2024-02-14T01:09:38;11.30;99.90
39675;DHT22;27790;50.840;4.386;2024-02-14T01:12:04;11.30;99.90
39675;DHT22;27790;50.840;4.386;2024-02-14T01:14:31;11.30;99.90
39675;DHT22;27790;50.840;4.386;2024-02-14T01:16:56;11.30;99.90
39675;DHT22;27790;50.840;4.386;2024-02-14T01:19:22;11.30;99.90
39675;DHT22;27790;50.840;4.386;2024-02-14T01:21:49;11.20;99.90
39675;DHT22;27790;50.840;4.386;2024-02-14T01:24:15;11.10;99.90
39675;DHT22;27790;50.840;4.386;2024-02-14T01:26:41;11.10;99.90
39675;DHT22;27790;50.840;4.386;2024-02-14T01:29:07;11.00;99.90
39675;DHT22;27790;50.840;4.386;2024-02-14T01:31:33;10.90;99.90
39675;DHT22;27790;50.840;4.386;2024-02-14T01:33:59;10.90;99.90
39675;DHT22;27790;50.840;4.386;2024-02-14T01:36:28;11.00;99.90
39675;DHT22;27790;50.840;4.386;2024-02-14T01:38:54;11.10;99.90
39675;DHT22;27790;50.840;4.386;2024-02-14T01:41:19;11.10;99.90
39675;DHT22;27790;50.840;4.386;2024-02-14T01:43:47;11.10;99.90
39675;DHT22;27790;50.840;4.386;2024-02-14T01:46:12;11.20;99.90
39675;DHT22;27790;50.840;4.386;2024-02-14T01:48:39;11.20;99.90
39675;DHT22;27790;50.840;4.386;2024-02-14T01:51:06;11.10;99.90
39675;DHT22;27790;50.840;4.386;2024-02-14T01:53:35;11.00;99.90
39675;DHT22;27790;50.840;4.386;2024-02-14T01:56:03;11.00;99.90
39675;DHT22;27790;50.840;4.386;2024-02-14T01:58:30;11.00;99.90
39675;DHT22;27790;50.840;4.386;2024-02-14T02:00:56;11.00;99.90
39675;DHT22;27790;50.840;4.386;2024-02-14T02:03:25;10.90;99.90
39675;DHT22;27790;50.840;4.386;2024-02-14T02:05:52;10.90;99.90
39675;DHT22;27790;50.840;4.386;2024-02-14T02:08:19;10.80;99.90
39675;DHT22;27790;50.840;4.386;2024-02-14T02:10:45;10.80;99.90
39675;DHT22;27790;50.840;4.386;2024-02-14T02:13:10;10.80;99.90
39675;DHT22;27790;50.840;4.386;2024-02-14T02:15:36;10.70;99.90
39675;DHT22;27790;50.840;4.386;2024-02-14T02:18:03;10.70;99.90
39675;DHT22;27790;50.840;4.386;2024-02-14T02:20:31;10.80;99.90
39675;DHT22;27790;50.840;4.386;2024-02-14T02:22:57;10.80;99.90
39675;DHT22;27790;50.840;4.386;2024-02-14T02:25:23;11.00;99.90
39675;DHT22;27790;50.840;4.386;2024-02-14T02:27:50;11.00;99.90
39675;DHT22;27790;50.840;4.386;2024-02-14T02:30:15;11.10;99.90
39675;DHT22;27790;50.840;4.386;2024-02-14T02:32:42;11.20;99.90
39675;DHT22;27790;50.840;4.386;2024-02-14T02:37:37;11.20;99.90
39675;DHT22;27790;50.840;4.386;2024-02-14T02:40:03;11.20;99.90
39675;DHT22;27790;50.840;4.386;2024-02-14T02:42:30;11.30;99.90
39675;DHT22;27790;50.840;4.386;2024-02-14T02:44:55;11.50;99.90
39675;DHT22;27790;50.840;4.386;2024-02-14T02:47:21;11.50;99.90
39675;DHT22;27790;50.840;4.386;2024-02-14T02:49:46;11.50;99.90
39675;DHT22;27790;50.840;4.386;2024-02-14T02:52:12;11.60;99.90
39675;DHT22;27790;50.840;4.386;2024-02-14T02:54:38;11.60;99.90
39675;DHT22;27790;50.840;4.386;2024-02-14T02:57:11;11.60;99.90
39675;DHT22;27790;50.840;4.386;2024-02-14T02:59:37;11.60;99.90
39675;DHT22;27790;50.840;4.386;2024-02-14T03:02:04;11.70;99.90
39675;DHT22;27790;50.840;4.386;2024-02-14T03:04:33;11.80;99.90
39675;DHT22;27790;50.840;4.386;2024-02-14T03:06:59;11.70;99.90
39675;DHT22;27790;50.840;4.386;2024-02-14T03:09:25;11.60;99.90
39675;DHT22;27790;50.840;4.386;2024-02-14T03:11:51;11.60;99.90
39675;DHT22;27790;50.840;4.386;2024-02-14T03:14:17;11.60;99.90
39675;DHT22;27790;50.840;4.386;2024-02-14T03:16:42;11.60;99.90
39675;DHT22;27790;50.840;4.386;2024-02-14T03:19:08;11.60;99.90
39675;DHT22;27790;50.840;4.386;2024-02-14T03:21:33;11.70;99.90
39675;DHT22;27790;50.840;4.386;2024-02-14T03:24:01;11.60;99.90
39675;DHT22;27790;50.840;4.386;2024-02-14T03:26:28;11.60;99.90
39675;DHT22;27790;50.840;4.386;2024-02-14T03:28:54;11.60;99.90
39675;DHT22;27790;50.840;4.386;2024-02-14T03:31:20;11.50;99.90
39675;DHT22;27790;50.840;4.386;2024-02-14T03:33:45;11.40;99.90
39675;DHT22;27790;50.840;4.386;2024-02-14T03:36:11;11.40;99.90
39675;DHT22;27790;50.840;4.386;2024-02-14T03:38:36;11.40;99.90
39675;DHT22;27790;50.840;4.386;2024-02-14T03:41:05;11.40;99.90
39675;DHT22;27790;50.840;4.386;2024-02-14T03:43:30;11.50;99.90
39675;DHT22;27790;50.840;4.386;2024-02-14T03:45:57;11.50;99.90
39675;DHT22;27790;50.840;4.386;2024-02-14T03:48:23;11.40;99.90
39675;DHT22;27790;50.840;4.386;2024-02-14T03:50:48;11.30;99.90
39675;DHT22;27790;50.840;4.386;2024-02-14T03:53:14;11.30;99.90
39675;DHT22;27790;50.840;4.386;2024-02-14T03:55:40;11.30;99.90
39675;DHT22;27790;50.840;4.386;2024-02-14T03:58:06;11.30;99.90
39675;DHT22;27790;50.840;4.386;2024-02-14T04:00:34;11.30;99.90
39675;DHT22;27790;50.840;4.386;2024-02-14T04:03:01;11.30;99.90
39675;DHT22;27790;50.840;4.386;2024-02-14T04:05:28;11.30;99.90
39675;DHT22;27790;50.840;4.386;2024-02-14T04:07:54;11.30;99.90
39675;DHT22;27790;50.840;4.386;2024-02-14T04:10:20;11.30;99.90
39675;DHT22;27790;50.840;4.386;2024-02-14T04:12:46;11.30;99.90
39675;DHT22;27790;50.840;4.386;2024-02-14T04:15:12;11.30;99.90
39675;DHT22;27790;50.840;4.386;2024-02-14T04:17:38;11.20;99.90
39675;DHT22;27790;50.840;4.386;2024-02-14T04:20:04;11.20;99.90
39675;DHT22;27790;50.840;4.386;2024-02-14T04:22:30;11.20;99.90
39675;DHT22;27790;50.840;4.386;2024-02-14T04:24:56;11.20;99.90
39675;DHT22;27790;50.840;4.386;2024-02-14T04:27:22;11.30;99.90
39675;DHT22;27790;50.840;4.386;2024-02-14T04:29:48;11.30;99.90
39675;DHT22;27790;50.840;4.386;2024-02-14T04:32:14;11.30;99.90
39675;DHT22;27790;50.840;4.386;2024-02-14T04:34:39;11.40;99.90
39675;DHT22;27790;50.840;4.386;2024-02-14T04:37:06;11.40;99.90
39675;DHT22;27790;50.840;4.386;2024-02-14T04:39:39;11.40;99.90
39675;DHT22;27790;50.840;4.386;2024-02-14T04:42:05;11.50;99.90
39675;DHT22;27790;50.840;4.386;2024-02-14T04:44:31;11.50;99.90
39675;DHT22;27790;50.840;4.386;2024-02-14T04:46:57;11.50;99.90
39675;DHT22;27790;50.840;4.386;2024-02-14T04:49:27;11.60;99.90
39675;DHT22;27790;50.840;4.386;2024-02-14T04:51:54;11.60;99.90
39675;DHT22;27790;50.840;4.386;2024-02-14T04:54:20;11.70;99.90
39675;DHT22;27790;50.840;4.386;2024-02-14T04:56:46;11.70;99.90
39675;DHT22;27790;50.840;4.386;2024-02-14T04:59:12;11.60;99.90
39675;DHT22;27790;50.840;4.386;2024-02-14T05:01:37;11.60;99.90
39675;DHT22;27790;50.840;4.386;2024-02-14T05:04:05;11.70;99.90
39675;DHT22;27790;50.840;4.386;2024-02-14T05:06:30;11.80;99.90
39675;DHT22;27790;50.840;4.386;2024-02-14T05:08:56;11.70;99.90
39675;DHT22;27790;50.840;4.386;2024-02-14T05:11:21;11.70;99.90
39675;DHT22;27790;50.840;4.386;2024-02-14T05:13:47;11.80;99.90
39675;DHT22;27790;50.840;4.386;2024-02-14T05:16:17;11.90;99.90
39675;DHT22;27790;50.840;4.386;2024-02-14T05:18:43;11.90;99.90
39675;DHT22;27790;50.840;4.386;2024-02-14T05:21:08;11.90;99.90
39675;DHT22;27790;50.840;4.386;2024-02-14T05:23:34;11.90;99.90
39675;DHT22;27790;50.840;4.386;2024-02-14T05:26:02;12.00;99.90
39675;DHT22;27790;50.840;4.386;2024-02-14T05:28:28;12.00;99.90
39675;DHT22;27790;50.840;4.386;2024-02-14T05:30:54;12.00;99.90
39675;DHT22;27790;50.840;4.386;2024-02-14T05:33:20;12.00;99.90
39675;DHT22;27790;50.840;4.386;2024-02-14T05:35:50;12.00;99.90
39675;DHT22;27790;50.840;4.386;2024-02-14T05:38:16;12.00;99.90
39675;DHT22;27790;50.840;4.386;2024-02-14T05:40:42;12.10;99.90
39675;DHT22;27790;50.840;4.386;2024-02-14T05:43:10;12.10;99.90
39675;DHT22;27790;50.840;4.386;2024-02-14T05:45:35;12.10;99.90
39675;DHT22;27790;50.840;4.386;2024-02-14T05:48:01;12.20;99.90
39675;DHT22;27790;50.840;4.386;2024-02-14T05:50:27;12.20;99.90
39675;DHT22;27790;50.840;4.386;2024-02-14T05:52:53;12.10;99.90
39675;DHT22;27790;50.840;4.386;2024-02-14T05:55:19;12.10;99.90
39675;DHT22;27790;50.840;4.386;2024-02-14T05:57:44;12.10;99.90
39675;DHT22;27790;50.840;4.386;2024-02-14T06:00:10;12.20;99.90
39675;DHT22;27790;50.840;4.386;2024-02-14T06:02:38;12.20;99.90
39675;DHT22;27790;50.840;4.386;2024-02-14T06:05:05;12.30;99.90
39675;DHT22;27790;50.840;4.386;2024-02-14T06:07:37;12.30;99.90
39675;DHT22;27790;50.840;4.386;2024-02-14T06:10:03;12.30;99.90
39675;DHT22;27790;50.840;4.386;2024-02-14T06:12:28;12.30;99.90
39675;DHT22;27790;50.840;4.386;2024-02-14T06:14:55;12.30;99.90
39675;DHT22;27790;50.840;4.386;2024-02-14T06:17:21;12.30;99.90
39675;DHT22;27790;50.840;4.386;2024-02-14T06:19:46;12.30;99.90
39675;DHT22;27790;50.840;4.386;2024-02-14T06:22:12;12.40;99.90
39675;DHT22;27790;50.840;4.386;2024-02-14T06:24:38;12.30;99.90
39675;DHT22;27790;50.840;4.386;2024-02-14T06:27:04;12.30;99.90
39675;DHT22;27790;50.840;4.386;2024-02-14T06:29:29;12.40;99.90
39675;DHT22;27790;50.840;4.386;2024-02-14T06:31:55;12.30;99.90
39675;DHT22;27790;50.840;4.386;2024-02-14T06:34:20;12.30;99.90
39675;DHT22;27790;50.840;4.386;2024-02-14T06:36:47;12.30;99.90
39675;DHT22;27790;50.840;4.386;2024-02-14T06:39:12;12.30;99.90
39675;DHT22;27790;50.840;4.386;2024-02-14T06:41:38;12.30;99.90
39675;DHT22;27790;50.840;4.386;2024-02-14T06:44:05;12.30;99.90
39675;DHT22;27790;50.840;4.386;2024-02-14T06:46:31;12.30;99.90
39675;DHT22;27790;50.840;4.386;2024-02-14T06:49:00;12.30;99.90
39675;DHT22;27790;50.840;4.386;2024-02-14T06:51:25;12.30;99.90
39675;DHT22;27790;50.840;4.386;2024-02-14T06:53:51;12.40;99.90
39675;DHT22;27790;50.840;4.386;2024-02-14T06:56:16;12.30;99.90
39675;DHT22;27790;50.840;4.386;2024-02-14T06:58:42;12.30;99.90
39675;DHT22;27790;50.840;4.386;2024-02-14T07:01:07;12.40;99.90
39675;DHT22;27790;50.840;4.386;2024-02-14T07:03:33;12.40;99.90
39675;DHT22;27790;50.840;4.386;2024-02-14T07:05:59;12.40;99.90
39675;DHT22;27790;50.840;4.386;2024-02-14T07:08:25;12.40;99.90
39675;DHT22;27790;50.840;4.386;2024-02-14T07:10:54;12.50;99.90
39675;DHT22;27790;50.840;4.386;2024-02-14T07:13:20;12.60;99.90
39675;DHT22;27790;50.840;4.386;2024-02-14T07:15:46;12.60;99.90
39675;DHT22;27790;50.840;4.386;2024-02-14T07:18:11;12.60;99.90
39675;DHT22;27790;50.840;4.386;2024-02-14T07:20:37;12.60;99.90
39675;DHT22;27790;50.840;4.386;2024-02-14T07:23:02;12.60;99.90
39675;DHT22;27790;50.840;4.386;2024-02-14T07:25:29;12.60;99.90
39675;DHT22;27790;50.840;4.386;2024-02-14T07:27:54;12.60;99.90
39675;DHT22;27790;50.840;4.386;2024-02-14T07:30:20;12.70;99.90
39675;DHT22;27790;50.840;4.386;2024-02-14T07:32:46;12.70;99.90
39675;DHT22;27790;50.840;4.386;2024-02-14T07:35:12;12.70;99.90
39675;DHT22;27790;50.840;4.386;2024-02-14T07:37:38;12.60;99.90
39675;DHT22;27790;50.840;4.386;2024-02-14T07:40:04;12.60;99.90
39675;DHT22;27790;50.840;4.386;2024-02-14T07:42:31;12.50;99.90
39675;DHT22;27790;50.840;4.386;2024-02-14T07:44:57;12.50;99.90
39675;DHT22;27790;50.840;4.386;2024-02-14T07:47:22;12.50;99.90
39675;DHT22;27790;50.840;4.386;2024-02-14T07:49:48;12.50;99.90
39675;DHT22;27790;50.840;4.386;2024-02-14T07:52:13;12.60;99.90
39675;DHT22;27790;50.840;4.386;2024-02-14T07:54:39;12.80;99.90
39675;DHT22;27790;50.840;4.386;2024-02-14T07:57:05;12.80;99.90
39675;DHT22;27790;50.840;4.386;2024-02-14T07:59:30;12.80;99.90
39675;DHT22;27790;50.840;4.386;2024-02-14T08:01:56;12.90;99.90
39675;DHT22;27790;50.840;4.386;2024-02-14T08:04:23;12.90;99.90
39675;DHT22;27790;50.840;4.386;2024-02-14T08:06:48;12.90;99.90
39675;DHT22;27790;50.840;4.386;2024-02-14T08:09:17;12.90;99.90
39675;DHT22;27790;50.840;4.386;2024-02-14T08:11:42;12.90;99.90
39675;DHT22;27790;50.840;4.386;2024-02-14T08:14:08;12.90;99.90
39675;DHT22;27790;50.840;4.386;2024-02-14T08:16:34;12.80;99.90
39675;DHT22;27790;50.840;4.386;2024-02-14T08:18:59;12.50;99.90
39675;DHT22;27790;50.840;4.386;2024-02-14T08:21:28;12.50;99.90
39675;DHT22;27790;50.840;4.386;2024-02-14T08:23:54;12.50;99.90
39675;DHT22;27790;50.840;4.386;2024-02-14T08:26:21;12.40;99.90
39675;DHT22;27790;50.840;4.386;2024-02-14T08:28:48;12.50;99.90
39675;DHT22;27790;50.840;4.386;2024-02-14T08:31:13;12.50;99.90
39675;DHT22;27790;50.840;4.386;2024-02-14T08:33:39;12.60;99.90
39675;DHT22;27790;50.840;4.386;2024-02-14T08:36:06;12.70;99.90
39675;DHT22;27790;50.840;4.386;2024-02-14T08:38:32;12.70;99.90
39675;DHT22;27790;50.840;4.386;2024-02-14T08:40:58;12.80;99.90
39675;DHT22;27790;50.840;4.386;2024-02-14T08:43:24;12.70;99.90
39675;DHT22;27790;50.840;4.386;2024-02-14T08:45:54;12.70;99.90
39675;DHT22;27790;50.840;4.386;2024-02-14T08:48:19;12.50;99.90
39675;DHT22;27790;50.840;4.386;2024-02-14T08:50:45;12.50;99.90
39675;DHT22;27790;50.840;4.386;2024-02-14T08:53:12;12.50;99.90
39675;DHT22;27790;50.840;4.386;2024-02-14T08:55:42;12.70;99.90
39675;DHT22;27790;50.840;4.386;2024-02-14T08:58:07;12.80;99.90
39675;DHT22;27790;50.840;4.386;2024-02-14T09:00:37;12.80;99.90
39675;DHT22;27790;50.840;4.386;2024-02-14T09:03:04;12.90;99.90
39675;DHT22;27790;50.840;4.386;2024-02-14T09:05:30;12.90;99.90
39675;DHT22;27790;50.840;4.386;2024-02-14T09:07:56;12.90;99.90
39675;DHT22;27790;50.840;4.386;2024-02-14T09:10:22;13.00;99.90
39675;DHT22;27790;50.840;4.386;2024-02-14T09:12:48;13.10;99.90
39675;DHT22;27790;50.840;4.386;2024-02-14T09:15:14;13.20;99.90
39675;DHT22;27790;50.840;4.386;2024-02-14T09:17:39;13.20;99.90
39675;DHT22;27790;50.840;4.386;2024-02-14T09:20:10;13.30;99.90
39675;DHT22;27790;50.840;4.386;2024-02-14T09:22:36;13.10;99.90
39675;DHT22;27790;50.840;4.386;2024-02-14T09:25:02;13.00;99.90
39675;DHT22;27790;50.840;4.386;2024-02-14T09:27:31;13.10;99.90
39675;DHT22;27790;50.840;4.386;2024-02-14T09:29:58;13.30;99.90
39675;DHT22;27790;50.840;4.386;2024-02-14T09:32:23;13.20;99.90
39675;DHT22;27790;50.840;4.386;2024-02-14T09:34:49;13.10;99.90
39675;DHT22;27790;50.840;4.386;2024-02-14T09:37:14;13.00;99.90
39675;DHT22;27790;50.840;4.386;2024-02-14T09:39:40;12.80;99.90
39675;DHT22;27790;50.840;4.386;2024-02-14T09:42:09;12.80;99.90
39675;DHT22;27790;50.840;4.386;2024-02-14T09:44:37;12.80;99.90
39675;DHT22;27790;50.840;4.386;2024-02-14T09:47:05;12.90;99.90
39675;DHT22;27790;50.840;4.386;2024-02-14T09:49:31;13.00;99.90
39675;DHT22;27790;50.840;4.386;2024-02-14T09:51:58;13.10;99.90
39675;DHT22;27790;50.840;4.386;2024-02-14T09:54:24;13.10;99.90
39675;DHT22;27790;50.840;4.386;2024-02-14T09:56:51;13.20;99.90
39675;DHT22;27790;50.840;4.386;2024-02-14T09:59:20;13.00;99.90
39675;DHT22;27790;50.840;4.386;2024-02-14T10:01:47;13.10;99.90
39675;DHT22;27790;50.840;4.386;2024-02-14T10:04:14;13.10;99.90
39675;DHT22;27790;50.840;4.386;2024-02-14T10:06:40;13.00;99.90
39675;DHT22;27790;50.840;4.386;2024-02-14T10:09:06;13.10;99.90
39675;DHT22;27790;50.840;4.386;2024-02-14T10:11:32;13.20;99.90
39675;DHT22;27790;50.840;4.386;2024-02-14T10:13:58;13.10;99.90
39675;DHT22;27790;50.840;4.386;2024-02-14T10:16:28;13.10;99.90
39675;DHT22;27790;50.840;4.386;2024-02-14T10:18:54;13.00;99.90
39675;DHT22;27790;50.840;4.386;2024-02-14T10:21:20;13.10;99.90
39675;DHT22;27790;50.840;4.386;2024-02-14T10:23:47;13.20;99.90
39675;DHT22;27790;50.840;4.386;2024-02-14T10:26:15;13.30;99.90
39675;DHT22;27790;50.840;4.386;2024-02-14T10:28:45;13.40;99.90
39675;DHT22;27790;50.840;4.386;2024-02-14T10:31:11;13.40;99.90
39675;DHT22;27790;50.840;4.386;2024-02-14T10:33:37;13.50;99.90
39675;DHT22;27790;50.840;4.386;2024-02-14T10:36:03;13.20;99.90
39675;DHT22;27790;50.840;4.386;2024-02-14T10:38:32;13.10;99.90
39675;DHT22;27790;50.840;4.386;2024-02-14T10:40:59;13.30;99.90
39675;DHT22;27790;50.840;4.386;2024-02-14T10:43:26;13.30;99.90
39675;DHT22;27790;50.840;4.386;2024-02-14T10:45:53;13.40;99.90
39675;DHT22;27790;50.840;4.386;2024-02-14T10:48:22;13.30;99.90
39675;DHT22;27790;50.840;4.386;2024-02-14T10:50:53;13.30;99.90
39675;DHT22;27790;50.840;4.386;2024-02-14T10:53:19;13.40;99.90
39675;DHT22;27790;50.840;4.386;2024-02-14T10:55:48;13.50;99.90
39675;DHT22;27790;50.840;4.386;2024-02-14T10:58:16;13.50;99.90
39675;DHT22;27790;50.840;4.386;2024-02-14T11:00:43;13.50;99.90
39675;DHT22;27790;50.840;4.386;2024-02-14T11:03:09;13.40;99.90
39675;DHT22;27790;50.840;4.386;2024-02-14T11:08:08;13.50;99.90
39675;DHT22;27790;50.840;4.386;2024-02-14T11:10:37;13.50;99.90
39675;DHT22;27790;50.840;4.386;2024-02-14T11:13:03;13.50;99.90
39675;DHT22;27790;50.840;4.386;2024-02-14T11:15:28;13.50;99.90
39675;DHT22;27790;50.840;4.386;2024-02-14T11:18:04;13.30;99.90
39675;DHT22;27790;50.840;4.386;2024-02-14T11:20:36;13.30;99.90
39675;DHT22;27790;50.840;4.386;2024-02-14T11:23:04;13.20;99.90
39675;DHT22;27790;50.840;4.386;2024-02-14T11:25:39;13.30;99.90
39675;DHT22;27790;50.840;4.386;2024-02-14T11:28:19;13.30;99.90
39675;DHT22;27790;50.840;4.386;2024-02-14T11:30:49;13.40;99.90
39675;DHT22;27790;50.840;4.386;2024-02-14T11:33:16;13.40;99.90
39675;DHT22;27790;50.840;4.386;2024-02-14T11:35:46;13.50;99.90
39675;DHT22;27790;50.840;4.386;2024-02-14T11:38:12;13.50;99.90
39675;DHT22;27790;50.840;4.386;2024-02-14T11:40:38;13.60;99.90
39675;DHT22;27790;50.840;4.386;2024-02-14T11:43:05;13.70;99.90
39675;DHT22;27790;50.840;4.386;2024-02-14T11:45:35;13.50;99.90
39675;DHT22;27790;50.840;4.386;2024-02-14T11:48:01;13.60;99.90
39675;DHT22;27790;50.840;4.386;2024-02-14T11:50:27;13.60;99.90
39675;DHT22;27790;50.840;4.386;2024-02-14T11:52:54;13.70;99.90
39675;DHT22;27790;50.840;4.386;2024-02-14T11:55:27;13.70;99.90
39675;DHT22;27790;50.840;4.386;2024-02-14T11:57:53;13.60;99.90
39675;DHT22;27790;50.840;4.386;2024-02-14T12:00:19;13.60;99.90
39675;DHT22;27790;50.840;4.386;2024-02-14T12:02:45;13.60;99.90
39675;DHT22;27790;50.840;4.386;2024-02-14T12:05:10;13.90;99.90
39675;DHT22;27790;50.840;4.386;2024-02-14T12:07:36;14.00;99.90
39675;DHT22;27790;50.840;4.386;2024-02-14T12:10:02;14.00;99.90
39675;DHT22;27790;50.840;4.386;2024-02-14T12:12:28;14.00;99.90
39675;DHT22;27790;50.840;4.386;2024-02-14T12:14:54;14.10;99.90
39675;DHT22;27790;50.840;4.386;2024-02-14T12:17:19;14.20;99.90
39675;DHT22;27790;50.840;4.386;2024-02-14T12:19:45;14.30;99.90
39675;DHT22;27790;50.840;4.386;2024-02-14T12:22:11;14.30;99.90
39675;DHT22;27790;50.840;4.386;2024-02-14T12:24:46;14.40;99.90
39675;DHT22;27790;50.840;4.386;2024-02-14T12:27:16;14.20;99.90
39675;DHT22;27790;50.840;4.386;2024-02-14T12:29:45;14.00;99.90
39675;DHT22;27790;50.840;4.386;2024-02-14T12:32:10;14.20;99.90
39675;DHT22;27790;50.840;4.386;2024-02-14T12:34:37;14.20;99.90
39675;DHT22;27790;50.840;4.386;2024-02-14T12:37:03;14.30;99.90
39675;DHT22;27790;50.840;4.386;2024-02-14T12:39:29;14.20;99.90
39675;DHT22;27790;50.840;4.386;2024-02-14T12:41:54;14.30;99.90
39675;DHT22;27790;50.840;4.386;2024-02-14T12:44:20;14.40;99.90
39675;DHT22;27790;50.840;4.386;2024-02-14T12:46:46;14.50;99.90
39675;DHT22;27790;50.840;4.386;2024-02-14T12:49:11;14.50;99.90
39675;DHT22;27790;50.840;4.386;2024-02-14T12:51:37;14.50;99.90
39675;DHT22;27790;50.840;4.386;2024-02-14T12:54:03;14.50;99.90
39675;DHT22;27790;50.840;4.386;2024-02-14T12:56:29;14.30;99.90
39675;DHT22;27790;50.840;4.386;2024-02-14T12:58:55;14.30;99.90
39675;DHT22;27790;50.840;4.386;2024-02-14T13:01:21;14.30;99.90
39675;DHT22;27790;50.840;4.386;2024-02-14T13:03:46;14.40;99.90
39675;DHT22;27790;50.840;4.386;2024-02-14T13:06:12;14.40;99.90
39675;DHT22;27790;50.840;4.386;2024-02-14T13:08:39;14.50;99.90
39675;DHT22;27790;50.840;4.386;2024-02-14T13:11:05;14.50;99.90
39675;DHT22;27790;50.840;4.386;2024-02-14T13:13:31;14.60;99.90
39675;DHT22;27790;50.840;4.386;2024-02-14T13:15:56;14.60;99.90
39675;DHT22;27790;50.840;4.386;2024-02-14T13:18:22;14.70;99.90
39675;DHT22;27790;50.840;4.386;2024-02-14T13:20:48;14.60;99.90
39675;DHT22;27790;50.840;4.386;2024-02-14T13:23:15;14.50;99.90
39675;DHT22;27790;50.840;4.386;2024-02-14T13:25:41;14.40;99.90
39675;DHT22;27790;50.840;4.386;2024-02-14T13:28:07;14.30;99.90
39675;DHT22;27790;50.840;4.386;2024-02-14T13:30:32;14.20;99.90
39675;DHT22;27790;50.840;4.386;2024-02-14T13:32:58;14.20;99.90
39675;DHT22;27790;50.840;4.386;2024-02-14T13:35:24;14.20;99.90
39675;DHT22;27790;50.840;4.386;2024-02-14T13:37:49;14.30;99.90
39675;DHT22;27790;50.840;4.386;2024-02-14T13:40:15;14.40;99.90
39675;DHT22;27790;50.840;4.386;2024-02-14T13:42:41;14.30;99.90
39675;DHT22;27790;50.840;4.386;2024-02-14T13:45:07;14.40;99.90
39675;DHT22;27790;50.840;4.386;2024-02-14T13:47:39;14.50;99.90
39675;DHT22;27790;50.840;4.386;2024-02-14T13:50:07;14.40;99.90
39675;DHT22;27790;50.840;4.386;2024-02-14T13:52:32;14.30;99.90
39675;DHT22;27790;50.840;4.386;2024-02-14T13:54:59;14.30;99.90
39675;DHT22;27790;50.840;4.386;2024-02-14T13:57:24;14.30;99.90
39675;DHT22;27790;50.840;4.386;2024-02-14T13:59:50;14.20;99.90
39675;DHT22;27790;50.840;4.386;2024-02-14T14:02:16;14.30;99.90
39675;DHT22;27790;50.840;4.386;2024-02-14T14:04:41;14.30;99.90
39675;DHT22;27790;50.840;4.386;2024-02-14T14:07:07;14.20;99.90
39675;DHT22;27790;50.840;4.386;2024-02-14T14:09:33;14.20;99.90
39675;DHT22;27790;50.840;4.386;2024-02-14T14:11:59;14.10;99.90
39675;DHT22;27790;50.840;4.386;2024-02-14T14:14:24;14.20;99.90
39675;DHT22;27790;50.840;4.386;2024-02-14T14:16:52;14.20;99.90
39675;DHT22;27790;50.840;4.386;2024-02-14T14:19:18;14.20;99.90
39675;DHT22;27790;50.840;4.386;2024-02-14T14:21:44;14.20;99.90
39675;DHT22;27790;50.840;4.386;2024-02-14T14:24:09;14.30;99.90
39675;DHT22;27790;50.840;4.386;2024-02-14T14:26:35;14.30;99.90
39675;DHT22;27790;50.840;4.386;2024-02-14T14:29:01;14.40;99.90
39675;DHT22;27790;50.840;4.386;2024-02-14T14:31:27;14.50;99.90
39675;DHT22;27790;50.840;4.386;2024-02-14T14:33:52;14.50;99.90
39675;DHT22;27790;50.840;4.386;2024-02-14T14:36:19;14.40;99.90
39675;DHT22;27790;50.840;4.386;2024-02-14T14:38:45;14.60;99.90
39675;DHT22;27790;50.840;4.386;2024-02-14T14:41:11;14.60;99.90
39675;DHT22;27790;50.840;4.386;2024-02-14T14:43:36;14.70;99.90
39675;DHT22;27790;50.840;4.386;2024-02-14T14:46:02;14.60;99.90
39675;DHT22;27790;50.840;4.386;2024-02-14T14:48:27;14.60;99.90
39675;DHT22;27790;50.840;4.386;2024-02-14T14:50:53;14.70;99.90
39675;DHT22;27790;50.840;4.386;2024-02-14T14:53:19;14.80;99.90
39675;DHT22;27790;50.840;4.386;2024-02-14T14:55:57;14.90;99.90
39675;DHT22;27790;50.840;4.386;2024-02-14T14:58:24;14.90;99.90
39675;DHT22;27790;50.840;4.386;2024-02-14T15:00:56;14.90;99.90
39675;DHT22;27790;50.840;4.386;2024-02-14T15:03:24;14.90;99.90
39675;DHT22;27790;50.840;4.386;2024-02-14T15:08:16;15.00;99.90
39675;DHT22;27790;50.840;4.386;2024-02-14T15:10:49;15.00;99.90
39675;DHT22;27790;50.840;4.386;2024-02-14T15:13:18;15.00;99.90
39675;DHT22;27790;50.840;4.386;2024-02-14T15:15:43;15.00;99.90
39675;DHT22;27790;50.840;4.386;2024-02-14T15:18:09;15.00;99.90
39675;DHT22;27790;50.840;4.386;2024-02-14T15:20:34;14.90;99.90
39675;DHT22;27790;50.840;4.386;2024-02-14T15:23:02;14.70;99.90
39675;DHT22;27790;50.840;4.386;2024-02-14T15:25:28;14.70;99.90
39675;DHT22;27790;50.840;4.386;2024-02-14T15:27:54;14.80;99.90
39675;DHT22;27790;50.840;4.386;2024-02-14T15:30:26;14.70;99.90
39675;DHT22;27790;50.840;4.386;2024-02-14T15:33:10;14.60;99.90